Time;durP1;ratioP1;P1;durP2;ratioP2;P2;SDS_P1;SDS_P2;PMS_P1;PMS_P2;Temp;Humidity;BMP_temperature;BMP_pressure;BME280_temperature;BME280_humidity;BME280_pressure;Samples;Min_cycle;Max_cycle;Signal;HPM_P1;HPM_P2
2023/12/15 00:00:04;;;;;;;20.93;14.23;;;6.90;94.00;;;8.50;65.96;102497.22;3082573;46;20428;-71
2023/12/15 00:02:32;;;;;;;23.03;14.37;;;6.90;94.10;;;8.49;65.95;102498.19;3082568;46;20427;-71
2023/12/15 00:05:01;;;;;;;20.30;14.03;;;6.90;94.10;;;8.52;65.86;102500.56;3082557;46;20464;-71
2023/12/15 00:07:29;;;;;;;24.83;14.67;;;6.90;94.10;;;8.53;65.80;102504.03;3081859;46;20463;-70
2023/12/15 00:09:57;;;;;;;21.40;13.57;;;6.90;94.10;;;8.53;65.85;102501.41;3082713;46;20432;-70
2023/12/15 00:12:26;;;;;;;20.77;13.77;;;6.90;94.20;;;8.51;65.91;102508.56;3082607;46;20505;-71
2023/12/15 00:14:54;;;;;;;22.63;14.23;;;6.90;94.20;;;8.45;66.24;102503.78;3082575;46;20432;-71
2023/12/15 00:17:23;;;;;;;21.57;14.70;;;6.90;94.10;;;8.43;66.32;102510.94;3081817;46;20443;-70
2023/12/15 00:19:52;;;;;;;20.30;13.43;;;6.90;94.20;;;8.40;66.18;102511.16;3082488;46;20431;-69
2023/12/15 00:22:20;;;;;;;24.80;13.47;;;6.90;94.20;;;8.37;66.41;102503.53;3082441;46;20427;-71
2023/12/15 00:24:49;;;;;;;20.33;13.53;;;6.80;94.20;;;8.33;66.50;102515.19;3082221;46;21015;-70
2023/12/15 00:27:17;;;;;;;20.17;13.90;;;6.80;94.20;;;8.25;66.83;102517.56;3081817;46;20972;-70
2023/12/15 00:29:45;;;;;;;22.97;13.97;;;6.80;94.20;;;8.20;67.04;102513.47;3082392;46;20428;-70
2023/12/15 00:32:14;;;;;;;20.37;15.07;;;6.80;94.50;;;8.19;66.61;102524.09;3082284;46;21079;-71
2023/12/15 00:34:42;;;;;;;21.50;15.17;;;6.80;94.20;;;8.13;67.07;102524.53;3082420;46;20519;-71
2023/12/15 00:37:10;;;;;;;19.90;14.37;;;6.70;94.30;;;8.11;66.79;102519.41;3081634;46;21351;-71
2023/12/15 00:39:39;;;;;;;20.63;14.07;;;6.70;94.30;;;8.09;66.97;102520.47;3082417;46;21006;-71
2023/12/15 00:42:07;;;;;;;20.43;13.40;;;6.60;94.20;;;8.09;66.97;102529.19;3081687;46;20481;-71
2023/12/15 00:44:36;;;;;;;19.90;13.83;;;6.70;94.30;;;8.07;66.96;102531.09;3081856;46;20994;-70
2023/12/15 00:47:04;;;;;;;23.00;14.67;;;6.60;94.40;;;8.06;67.35;102523.31;3081515;46;20446;-70
2023/12/15 00:49:32;;;;;;;21.13;13.93;;;6.60;94.40;;;8.08;67.16;102527.50;3081825;46;20431;-70
2023/12/15 00:52:01;;;;;;;21.67;15.00;;;6.60;94.40;;;8.10;67.00;102530.88;3082171;46;21119;-71
2023/12/15 00:54:29;;;;;;;20.77;15.07;;;6.60;94.50;;;8.07;67.33;102523.22;3081796;46;20428;-70
2023/12/15 00:56:58;;;;;;;21.30;14.73;;;6.60;94.60;;;8.08;67.33;102524.88;3081095;46;20439;-71
2023/12/15 00:59:26;;;;;;;22.30;15.77;;;6.60;94.60;;;8.08;67.23;102530.13;3081584;46;20569;-70
2023/12/15 01:01:55;;;;;;;20.13;14.03;;;6.60;94.60;;;8.10;67.03;102527.41;3081836;46;20521;-71
2023/12/15 01:04:23;;;;;;;22.13;14.77;;;6.60;94.60;;;8.11;67.04;102532.50;3081897;46;20446;-69
2023/12/15 01:06:52;;;;;;;24.40;14.77;;;6.60;94.60;;;8.10;67.14;102536.09;3081428;46;20443;-70
2023/12/15 01:09:21;;;;;;;21.47;14.73;;;6.60;94.60;;;8.17;67.40;102553.06;3081704;46;20451;-70
2023/12/15 01:11:50;;;;;;;20.60;14.07;;;6.60;94.70;;;8.27;67.14;102552.41;3081658;46;20465;-71
2023/12/15 01:14:18;;;;;;;21.17;14.30;;;6.60;94.80;;;8.30;66.79;102541.66;3081709;46;20497;-71
2023/12/15 01:16:49;;;;;;;21.93;14.27;;;6.70;94.80;;;8.30;66.86;102546.91;3080172;46;21071;-70
2023/12/15 01:19:18;;;;;;;24.27;15.80;;;6.70;94.70;;;8.31;67.00;102551.22;3081808;46;20498;-71
2023/12/15 01:21:46;;;;;;;22.23;15.63;;;6.70;94.60;;;8.33;66.84;102558.00;3081748;46;20440;-71
2023/12/15 01:24:15;;;;;;;22.67;15.17;;;6.70;94.60;;;8.33;66.97;102551.91;3081648;46;20436;-69
2023/12/15 01:26:43;;;;;;;21.70;14.83;;;6.80;94.70;;;8.36;67.03;102552.53;3080827;46;21100;-71
2023/12/15 01:29:12;;;;;;;27.53;15.97;;;6.80;94.70;;;8.38;66.96;102565.53;3081399;46;21015;-71
2023/12/15 01:31:40;;;;;;;24.53;14.30;;;6.80;94.70;;;8.40;67.18;102563.63;3081403;46;20427;-71
2023/12/15 01:34:09;;;;;;;22.33;15.87;;;6.80;94.70;;;8.39;67.06;102557.53;3081740;46;20427;-71
2023/12/15 01:36:37;;;;;;;22.13;14.77;;;6.80;94.80;;;8.32;67.38;102566.00;3080860;46;20451;-69
2023/12/15 01:39:05;;;;;;;23.00;15.57;;;6.80;94.80;;;8.31;67.77;102564.31;3081494;46;20430;-71
2023/12/15 01:41:34;;;;;;;22.80;14.57;;;6.80;94.80;;;8.36;67.66;102572.69;3080490;46;20460;-69
2023/12/15 01:44:02;;;;;;;22.80;14.73;;;6.80;94.90;;;8.41;67.63;102573.19;3081654;46;20546;-70
2023/12/15 01:46:31;;;;;;;23.47;14.80;;;6.80;94.90;;;8.50;67.63;102577.72;3081322;46;20427;-70
2023/12/15 01:48:59;;;;;;;22.97;14.60;;;6.80;95.10;;;8.60;67.38;102581.34;3081279;46;20435;-70
2023/12/15 01:51:27;;;;;;;23.40;15.87;;;6.90;95.20;;;8.67;67.15;102582.56;3081639;46;20429;-71
2023/12/15 01:53:56;;;;;;;20.47;14.20;;;6.90;95.20;;;8.73;66.84;102582.06;3081221;46;20445;-69
2023/12/15 01:56:24;;;;;;;23.77;14.90;;;7.00;95.20;;;8.78;66.94;102586.03;3080675;46;20431;-71
2023/12/15 01:58:53;;;;;;;25.03;16.70;;;7.00;95.20;;;8.83;66.88;102594.38;3081669;46;20431;-71
2023/12/15 02:01:21;;;;;;;22.70;15.60;;;7.00;95.20;;;8.87;66.56;102594.16;3081340;46;20573;-71
2023/12/15 02:03:49;;;;;;;22.83;15.67;;;7.00;95.20;;;8.90;66.76;102593.91;3081474;46;20530;-70
2023/12/15 02:06:18;;;;;;;22.37;15.67;;;7.10;95.20;;;8.92;66.82;102592.84;3081116;46;20430;-71
2023/12/15 02:08:47;;;;;;;23.73;15.30;;;7.10;95.20;;;8.91;66.50;102591.19;3080741;46;20459;-71
2023/12/15 02:11:16;;;;;;;25.90;16.73;;;7.10;95.10;;;8.89;66.74;102598.31;3081509;46;20431;-71
2023/12/15 02:13:44;;;;;;;24.73;15.80;;;7.20;95.20;;;8.89;66.89;102593.06;3081159;46;20428;-70
2023/12/15 02:16:13;;;;;;;26.20;16.37;;;7.10;95.10;;;8.85;66.84;102589.00;3080914;46;21079;-69
2023/12/15 02:18:41;;;;;;;25.43;15.73;;;7.20;95.10;;;8.80;66.86;102584.13;3080410;46;20464;-71
2023/12/15 02:21:09;;;;;;;28.67;17.47;;;7.20;95.00;;;8.74;67.45;102586.38;3081192;46;20428;-71
2023/12/15 02:23:38;;;;;;;24.87;16.00;;;7.20;95.20;;;8.70;67.35;102592.81;3081143;46;20991;-69
2023/12/15 02:26:06;;;;;;;23.80;15.73;;;7.20;95.10;;;8.65;68.02;102598.41;3080827;46;20584;-71
2023/12/15 02:28:35;;;;;;;23.83;15.67;;;7.10;95.20;;;8.62;68.29;102595.19;3080948;46;21010;-69
2023/12/15 02:31:04;;;;;;;25.53;16.97;;;7.10;95.30;;;8.59;67.95;102591.00;3081176;46;20427;-69
2023/12/15 02:33:32;;;;;;;27.93;17.70;;;7.10;95.30;;;8.58;68.08;102593.75;3080685;46;20550;-71
2023/12/15 02:36:01;;;;;;;26.43;17.30;;;7.00;95.30;;;8.56;68.25;102600.88;3080688;46;20456;-69
2023/12/15 02:38:29;;;;;;;22.33;15.47;;;7.00;95.40;;;8.51;68.49;102589.91;3080554;46;20443;-69
2023/12/15 02:40:57;;;;;;;24.63;16.70;;;7.00;95.50;;;8.47;68.58;102589.28;3080241;46;20508;-71
2023/12/15 02:43:26;;;;;;;24.47;16.47;;;7.00;95.50;;;8.44;68.79;102607.06;3081142;46;20451;-71
2023/12/15 02:45:54;;;;;;;23.87;16.80;;;7.00;95.50;;;8.45;68.70;102604.31;3080758;46;20497;-70
2023/12/15 02:48:23;;;;;;;24.77;16.87;;;6.90;95.60;;;8.46;68.77;102603.34;3080127;46;20439;-70
2023/12/15 02:50:51;;;;;;;25.40;16.40;;;6.90;95.70;;;8.43;69.10;102605.38;3080895;46;20544;-70
2023/12/15 02:53:19;;;;;;;27.10;16.93;;;6.90;95.70;;;8.44;69.36;102604.44;3080902;46;20456;-70
2023/12/15 02:55:49;;;;;;;24.60;16.67;;;6.90;95.80;;;8.40;69.69;102601.19;3080701;46;21081;-70
2023/12/15 02:58:18;;;;;;;25.40;16.83;;;6.90;96.00;;;8.39;69.70;102596.88;3080088;46;20467;-69
2023/12/15 03:00:46;;;;;;;23.60;16.93;;;6.90;96.00;;;8.38;69.94;102597.84;3080800;46;20424;-70
2023/12/15 03:03:15;;;;;;;27.10;16.47;;;6.90;96.10;;;8.39;69.66;102598.69;3080686;46;20999;-71
2023/12/15 03:05:43;;;;;;;25.37;16.03;;;6.90;96.40;;;8.45;69.48;102601.69;3080605;46;20439;-71
2023/12/15 03:08:11;;;;;;;25.50;16.67;;;6.90;96.20;;;8.56;69.63;102616.63;3082187;46;21007;-71
2023/12/15 03:10:40;;;;;;;26.93;17.23;;;6.90;96.30;;;8.64;69.39;102614.28;3083192;46;21026;-71
2023/12/15 03:13:08;;;;;;;24.77;16.10;;;6.90;96.30;;;8.72;69.26;102614.53;3083130;46;20495;-70
2023/12/15 03:15:36;;;;;;;27.53;18.33;;;7.00;96.50;;;8.75;68.94;102611.66;3083113;46;20506;-70
2023/12/15 03:18:05;;;;;;;26.90;17.67;;;7.00;96.40;;;8.76;69.45;102608.09;3082691;46;20438;-71
2023/12/15 03:20:33;;;;;;;27.83;17.63;;;7.00;96.30;;;8.74;69.21;102599.50;3082975;46;20483;-70
2023/12/15 03:23:02;;;;;;;23.00;16.53;;;7.10;96.30;;;8.69;69.40;102596.38;3082948;46;20503;-70
2023/12/15 03:25:30;;;;;;;27.07;17.37;;;7.10;96.20;;;8.59;69.68;102600.66;3082924;46;20475;-69
2023/12/15 03:28:00;;;;;;;27.70;17.83;;;7.10;96.20;;;8.54;69.63;102601.00;3082433;46;21004;-71
2023/12/15 03:30:28;;;;;;;25.63;17.60;;;7.10;96.10;;;8.55;69.65;102604.47;3082923;46;20998;-71
2023/12/15 03:32:56;;;;;;;26.03;17.50;;;7.10;96.20;;;8.52;70.16;102616.03;3083394;46;21005;-71
2023/12/15 03:35:25;;;;;;;29.23;17.50;;;7.00;96.30;;;8.47;70.45;102609.44;3082606;46;21033;-71
2023/12/15 03:37:53;;;;;;;25.20;17.07;;;7.00;96.40;;;8.44;70.48;102609.69;3082364;46;20439;-71
2023/12/15 03:40:22;;;;;;;34.23;17.10;;;7.00;96.50;;;8.42;70.62;102603.69;3082745;46;20453;-70
2023/12/15 03:42:51;;;;;;;26.07;17.70;;;7.00;96.50;;;8.37;71.20;102600.59;3082110;46;20535;-70
2023/12/15 03:45:19;;;;;;;28.97;17.70;;;6.90;96.70;;;8.35;71.20;102598.06;3082407;46;20460;-68
2023/12/15 03:47:47;;;;;;;28.30;17.33;;;6.90;96.50;;;8.38;71.11;102599.63;3082114;46;20455;-71
2023/12/15 03:50:16;;;;;;;27.53;17.13;;;6.90;96.60;;;8.36;71.19;102609.41;3082680;46;20439;-70
2023/12/15 03:52:45;;;;;;;30.40;18.27;;;6.90;96.70;;;8.37;71.28;102611.09;3082749;46;20427;-71
2023/12/15 03:55:13;;;;;;;26.40;17.67;;;6.90;96.70;;;8.39;71.14;102603.94;3082565;46;20488;-69
2023/12/15 03:57:41;;;;;;;26.97;17.93;;;6.90;96.80;;;8.34;71.68;102601.66;3082086;46;20455;-71
2023/12/15 04:00:11;;;;;;;30.30;18.87;;;6.90;97.00;;;8.37;71.33;102600.59;3082662;46;20427;-71
2023/12/15 04:02:39;;;;;;;24.73;17.47;;;6.90;96.90;;;8.36;71.66;102596.28;3082359;46;20485;-70
2023/12/15 04:05:08;;;;;;;26.33;18.20;;;6.90;97.10;;;8.38;71.80;102595.25;3082652;46;20428;-70
2023/12/15 04:07:36;;;;;;;29.20;18.90;;;6.90;97.10;;;8.42;71.41;102598.44;3081741;46;20438;-71
2023/12/15 04:10:06;;;;;;;27.03;17.87;;;6.90;97.10;;;8.42;71.61;102599.28;3081878;46;20435;-71
2023/12/15 04:12:35;;;;;;;25.13;17.73;;;6.90;97.10;;;8.50;71.57;102611.84;3082326;46;20431;-71
2023/12/15 04:15:04;;;;;;;26.23;17.60;;;6.90;97.20;;;8.58;71.09;102620.81;3082525;46;20462;-71
2023/12/15 04:17:33;;;;;;;25.33;16.70;;;6.90;97.20;;;8.66;71.30;102620.22;3081218;46;20440;-69
2023/12/15 04:20:02;;;;;;;24.57;16.77;;;7.00;97.40;;;8.74;71.12;102623.13;3082203;46;20456;-70
2023/12/15 04:22:31;;;;;;;26.10;17.47;;;7.00;97.30;;;8.75;70.72;102627.41;3082373;46;20476;-71
2023/12/15 04:24:59;;;;;;;26.43;18.60;;;7.00;97.20;;;8.77;70.61;102630.78;3082128;46;21120;-71
2023/12/15 04:27:28;;;;;;;26.20;17.27;;;7.10;97.20;;;8.83;70.74;102641.66;3081422;46;20471;-71
2023/12/15 04:29:56;;;;;;;23.03;16.60;;;7.10;97.20;;;8.89;70.82;102648.19;3082380;46;20460;-71
2023/12/15 04:32:24;;;;;;;28.70;18.17;;;7.10;97.20;;;8.95;70.60;102645.13;3082535;46;21112;-70
2023/12/15 04:34:53;;;;;;;25.73;17.13;;;7.20;97.30;;;9.02;70.29;102656.84;3082513;46;20539;-71
2023/12/15 04:37:21;;;;;;;27.13;17.40;;;7.20;97.30;;;9.06;70.39;102652.16;3081688;46;20451;-71
2023/12/15 04:39:50;;;;;;;24.77;17.00;;;7.30;97.30;;;9.10;70.36;102648.38;3082022;46;21152;-71
2023/12/15 04:42:18;;;;;;;30.10;18.03;;;7.30;97.30;;;9.15;70.08;102651.50;3081096;46;20496;-71
2023/12/15 04:44:46;;;;;;;27.30;18.40;;;7.30;97.30;;;9.18;70.16;102654.69;3081965;46;20484;-69
2023/12/15 04:47:15;;;;;;;33.20;18.80;;;7.40;97.30;;;9.21;70.38;102654.47;3081516;46;20434;-70
2023/12/15 04:49:43;;;;;;;28.80;18.47;;;7.40;97.30;;;9.24;70.00;102648.16;3081873;46;20432;-71
2023/12/15 04:52:11;;;;;;;27.20;17.13;;;7.40;97.20;;;9.24;70.03;102659.50;3081714;46;20602;-71
2023/12/15 04:54:40;;;;;;;30.87;19.23;;;7.40;97.20;;;9.27;69.95;102653.97;3082139;46;20428;-71
2023/12/15 04:57:08;;;;;;;30.70;19.87;;;7.50;97.30;;;9.29;70.08;102661.75;3081336;46;20490;-71
2023/12/15 04:59:39;;;;;;;32.10;20.13;;;7.50;97.30;;;9.31;70.02;102662.47;3081931;46;20427;-71
2023/12/15 05:02:08;;;;;;;31.07;19.23;;;7.50;97.20;;;9.32;70.07;102670.22;3081813;46;20427;-71
2023/12/15 05:04:38;;;;;;;32.17;20.97;;;7.50;97.20;;;9.33;69.87;102664.03;3081808;46;20435;-70
2023/12/15 05:07:08;;;;;;;27.90;19.00;;;7.60;97.30;;;9.34;70.03;102673.56;3081061;46;20440;-72
2023/12/15 05:09:36;;;;;;;32.23;20.73;;;7.60;97.30;;;9.34;70.09;102668.31;3081818;46;20579;-71
2023/12/15 05:12:06;;;;;;;32.17;20.53;;;7.60;97.30;;;9.37;70.08;102681.22;3081579;46;20455;-70
2023/12/15 05:14:36;;;;;;;34.77;21.00;;;7.60;97.30;;;9.39;70.20;102687.19;3082256;46;20569;-71
2023/12/15 05:17:04;;;;;;;36.03;21.87;;;7.60;97.30;;;9.42;69.82;102686.97;3081112;46;20574;-68
2023/12/15 05:19:33;;;;;;;32.90;20.93;;;7.60;97.40;;;9.45;70.04;102689.38;3081665;46;20509;-71
2023/12/15 05:22:01;;;;;;;37.57;23.87;;;7.60;97.40;;;9.49;70.04;102698.69;3081724;46;20566;-70
2023/12/15 05:24:33;;;;;;;33.93;22.53;;;7.70;97.50;;;9.51;69.85;102702.00;3081622;46;20427;-70
2023/12/15 05:27:02;;;;;;;33.80;21.60;;;7.70;97.50;;;9.55;69.79;102700.81;3081077;46;20439;-71
2023/12/15 05:29:31;;;;;;;37.07;21.83;;;7.70;97.50;;;9.57;70.01;102695.44;3081170;46;20688;-70
2023/12/15 05:32:00;;;;;;;37.53;23.03;;;7.70;97.50;;;9.60;69.94;102691.75;3081905;46;21144;-71
2023/12/15 05:34:28;;;;;;;36.87;24.33;;;7.80;97.50;;;9.63;69.88;102694.16;3081579;46;20611;-70
2023/12/15 05:36:57;;;;;;;38.10;22.27;;;7.80;97.50;;;9.64;69.88;102706.31;3080842;46;20469;-70
2023/12/15 05:39:25;;;;;;;37.90;24.07;;;7.80;97.60;;;9.65;70.17;102718.53;3081603;46;20504;-71
2023/12/15 05:41:53;;;;;;;47.00;24.73;;;7.80;97.60;;;9.65;70.17;102715.91;3080820;46;21049;-71
2023/12/15 05:44:22;;;;;;;39.77;24.30;;;7.80;97.60;;;9.67;70.17;102721.88;3081666;46;20427;-71
2023/12/15 05:46:50;;;;;;;44.83;24.53;;;7.90;97.70;;;9.69;70.30;102719.94;3081152;46;20448;-70
2023/12/15 05:49:18;;;;;;;37.67;22.60;;;7.90;97.70;;;9.71;70.34;102718.03;3080973;46;20439;-71
2023/12/15 05:51:48;;;;;;;39.53;22.93;;;7.90;97.80;;;9.74;70.26;102728.31;3081491;46;20452;-69
2023/12/15 05:54:17;;;;;;;43.00;23.33;;;7.90;97.90;;;9.74;70.10;102718.66;3080988;46;20471;-70
2023/12/15 05:56:45;;;;;;;41.07;24.13;;;7.90;97.80;;;9.78;70.38;102724.47;3079954;46;20552;-71
2023/12/15 05:59:13;;;;;;;40.30;23.63;;;8.00;97.90;;;9.79;70.54;102724.38;3081142;46;20432;-70
2023/12/15 06:01:42;;;;;;;43.60;24.90;;;8.00;97.90;;;9.80;70.54;102723.41;3081319;46;20970;-71
2023/12/15 06:04:10;;;;;;;44.40;24.47;;;8.00;97.90;;;9.81;70.66;102727.72;3081197;46;20452;-71
2023/12/15 06:06:38;;;;;;;43.73;24.43;;;8.00;97.90;;;9.83;70.61;102731.06;3081064;46;20550;-71
2023/12/15 06:09:09;;;;;;;49.13;25.47;;;8.00;97.90;;;9.86;70.71;102735.25;3081235;46;20428;-70
2023/12/15 06:11:42;;;;;;;42.43;23.13;;;8.00;97.90;;;9.87;70.19;102734.28;3080994;46;20435;-70
2023/12/15 06:14:10;;;;;;;45.80;27.53;;;8.10;97.90;;;9.91;70.52;102743.63;3080912;46;20456;-71
2023/12/15 06:16:38;;;;;;;45.33;25.27;;;8.10;98.00;;;9.93;70.63;102745.16;3080528;46;20431;-69
2023/12/15 06:19:07;;;;;;;40.57;23.73;;;8.10;97.90;;;9.97;70.61;102745.75;3081129;46;20434;-70
2023/12/15 06:21:36;;;;;;;40.07;23.43;;;8.10;97.90;;;10.00;70.42;102740.25;3081129;46;20981;-71
2023/12/15 06:24:05;;;;;;;44.13;23.20;;;8.20;97.90;;;10.02;70.62;102743.59;3080605;46;20424;-70
2023/12/15 06:26:33;;;;;;;40.23;23.00;;;8.20;97.90;;;10.04;70.50;102741.69;3080490;46;21179;-68
2023/12/15 06:29:02;;;;;;;36.80;23.03;;;8.20;97.90;;;10.06;70.64;102737.97;3081081;46;20448;-68
2023/12/15 06:31:30;;;;;;;44.03;23.57;;;8.30;97.90;;;10.09;70.72;102742.16;3080995;46;20427;-71
2023/12/15 06:33:59;;;;;;;42.83;23.40;;;8.30;98.00;;;10.11;70.40;102743.72;3081043;46;21005;-70
2023/12/15 06:36:27;;;;;;;42.23;23.70;;;8.30;97.90;;;10.13;70.62;102746.22;3080778;46;20431;-70
2023/12/15 06:38:57;;;;;;;41.43;23.10;;;8.30;97.80;;;10.12;70.65;102750.69;3080503;46;20432;-71
2023/12/15 06:41:25;;;;;;;40.37;24.00;;;8.30;97.80;;;10.14;70.68;102743.50;3081292;46;20576;-71
2023/12/15 06:43:55;;;;;;;38.17;22.23;;;8.30;97.80;;;10.17;70.64;102752.94;3083009;46;20465;-71
2023/12/15 06:46:24;;;;;;;36.37;23.03;;;8.40;97.90;;;10.20;70.47;102753.53;3082752;46;20423;-69
2023/12/15 06:48:56;;;;;;;38.93;21.83;;;8.40;97.90;;;10.20;70.40;102756.16;3083011;46;20466;-71
2023/12/15 06:51:24;;;;;;;41.80;22.47;;;8.40;97.80;;;10.22;70.35;102761.31;3083220;46;20461;-71
2023/12/15 06:53:52;;;;;;;35.97;21.93;;;8.40;97.80;;;10.22;70.57;102769.22;3082768;46;20440;-70
2023/12/15 06:56:21;;;;;;;37.07;22.23;;;8.40;97.70;;;10.21;70.55;102775.41;3082207;46;20441;-70
2023/12/15 06:58:49;;;;;;;44.17;22.37;;;8.40;97.70;;;10.24;70.62;102763.81;3083121;46;21129;-71
2023/12/15 07:01:18;;;;;;;40.97;22.37;;;8.50;97.80;;;10.24;70.30;102771.72;3083027;46;20482;-71
2023/12/15 07:03:48;;;;;;;42.57;22.60;;;8.50;97.70;;;10.25;70.50;102776.00;3083204;46;21004;-70
2023/12/15 07:06:18;;;;;;;38.17;22.40;;;8.40;97.70;;;10.26;70.51;102782.94;3082930;46;20462;-70
2023/12/15 07:08:53;;;;;;;41.40;22.53;;;8.50;97.70;;;10.28;70.60;102792.38;3082959;46;20456;-71
2023/12/15 07:11:22;;;;;;;39.10;22.90;;;8.50;97.70;;;10.28;70.66;102797.66;3083009;46;20426;-71
2023/12/15 07:13:51;;;;;;;41.10;23.77;;;8.50;97.70;;;10.28;70.37;102797.66;3082917;46;20427;-70
2023/12/15 07:16:19;;;;;;;40.70;22.40;;;8.50;97.70;;;10.27;70.44;102790.69;3082651;46;20427;-68
2023/12/15 07:18:47;;;;;;;36.20;21.60;;;8.50;97.70;;;10.28;70.38;102796.81;3083055;46;20513;-71
2023/12/15 07:21:16;;;;;;;38.40;22.33;;;8.50;97.70;;;10.28;70.53;102808.19;3082967;46;20575;-70
2023/12/15 07:23:44;;;;;;;39.03;23.00;;;8.50;97.60;;;10.30;70.39;102805.41;3082633;46;20457;-70
2023/12/15 07:26:13;;;;;;;38.47;21.03;;;8.50;97.60;;;10.31;70.54;102807.94;3082876;46;20554;-70
2023/12/15 07:28:41;;;;;;;39.03;21.10;;;8.50;97.70;;;10.32;70.62;102820.13;3082235;46;21196;-70
2023/12/15 07:31:10;;;;;;;41.33;21.23;;;8.50;97.70;;;10.38;70.98;102824.94;3081955;46;20545;-71
2023/12/15 07:33:38;;;;;;;39.10;21.77;;;8.60;97.80;;;10.43;70.35;102833.31;3083051;43;20459;-70
2023/12/15 07:36:08;;;;;;;43.80;23.27;;;8.60;97.80;;;10.47;70.47;102834.72;3082718;46;20427;-70
2023/12/15 07:38:38;;;;;;;36.50;21.07;;;8.60;97.80;;;10.49;70.21;102843.31;3081969;46;20479;-71
2023/12/15 07:41:08;;;;;;;37.60;22.07;;;8.60;97.70;;;10.50;70.21;102842.38;3081516;46;20956;-70
2023/12/15 07:43:37;;;;;;;34.60;21.27;;;8.70;97.70;;;10.51;70.25;102836.13;3082503;46;20455;-71
2023/12/15 07:46:18;;;;;;;43.97;23.37;;;8.70;97.60;;;10.49;70.00;102831.94;3081534;43;20446;-70
2023/12/15 07:48:47;;;;;;;41.30;22.90;;;8.70;97.60;;;10.50;70.12;102834.47;3082749;46;20439;-73
2023/12/15 07:51:21;;;;;;;33.70;21.80;;;8.70;97.60;;;10.50;70.27;102841.53;3082114;46;20457;-70
2023/12/15 07:53:49;;;;;;;41.00;21.70;;;8.70;97.60;;;10.52;70.38;102840.47;3081705;46;20493;-71
2023/12/15 07:56:24;;;;;;;41.73;20.80;;;8.70;97.60;;;10.54;70.37;102849.06;3082374;46;20436;-70
2023/12/15 07:58:55;;;;;;;37.50;21.50;;;8.70;97.70;;;10.58;70.34;102847.84;3081616;43;21082;-71
2023/12/15 08:01:24;;;;;;;41.93;23.07;;;8.70;97.70;;;10.61;70.38;102847.63;3082284;46;20438;-71
2023/12/15 08:03:53;;;;;;;39.23;21.40;;;8.80;97.70;;;10.65;70.34;102854.31;3082057;46;20944;-71
2023/12/15 08:06:21;;;;;;;32.13;20.27;;;8.80;97.70;;;10.69;70.27;102863.66;3081822;46;20428;-71
2023/12/15 08:08:52;;;;;;;35.83;19.30;;;8.90;97.70;;;10.73;70.20;102857.16;3081548;46;20431;-71
2023/12/15 08:11:22;;;;;;;37.20;19.00;;;8.90;97.70;;;10.79;70.40;102861.94;3081692;46;20476;-70
2023/12/15 08:13:51;;;;;;;36.13;18.97;;;8.90;97.80;;;10.83;70.29;102873.91;3081165;46;21001;-69
2023/12/15 08:16:19;;;;;;;35.90;19.47;;;8.90;97.70;;;10.86;70.02;102888.66;3080786;46;20490;-71
2023/12/15 08:18:48;;;;;;;30.67;18.13;;;9.00;97.70;;;10.87;70.05;102877.97;3081940;46;20559;-71
2023/12/15 08:21:16;;;;;;;33.53;18.03;;;9.00;97.60;;;10.91;69.96;102880.38;3081589;46;20508;-71
2023/12/15 08:23:44;;;;;;;32.53;19.67;;;9.00;97.60;;;10.92;69.89;102888.13;3081427;46;20453;-70
2023/12/15 08:26:27;;;;;;;30.10;20.07;;;9.00;97.60;;;10.92;69.80;102888.13;3080574;44;21138;-71
2023/12/15 08:28:55;;;;;;;30.63;18.67;;;9.10;97.50;;;10.96;70.05;102888.75;3081681;46;20443;-70
2023/12/15 08:31:24;;;;;;;33.10;20.43;;;9.10;97.60;;;11.02;69.99;102898.78;3081774;46;20449;-71
2023/12/15 08:33:54;;;;;;;31.90;19.67;;;9.10;97.60;;;11.05;69.75;102894.09;3081643;46;20445;-70
2023/12/15 08:36:23;;;;;;;32.97;19.00;;;9.20;97.60;;;11.09;69.71;102900.78;3081579;46;20427;-70
2023/12/15 08:38:51;;;;;;;34.43;18.40;;;9.20;97.60;;;11.13;69.67;102901.38;3081783;46;20544;-70
2023/12/15 08:41:20;;;;;;;33.93;18.77;;;9.20;97.50;;;11.16;69.55;102906.38;3080516;46;20513;-70
2023/12/15 08:43:48;;;;;;;29.40;18.00;;;9.20;97.50;;;11.17;69.77;102903.63;3081661;46;20458;-71
2023/12/15 08:46:16;;;;;;;34.67;19.00;;;9.30;97.60;;;11.20;69.61;102902.53;3081519;46;20490;-69
2023/12/15 08:48:45;;;;;;;37.83;18.73;;;9.30;97.50;;;11.24;69.56;102917.16;3081041;46;20510;-71
2023/12/15 08:51:14;;;;;;;51.17;31.67;;;9.30;97.50;;;11.24;69.62;102914.53;3081578;46;20553;-71
2023/12/15 08:53:43;;;;;;;32.00;18.53;;;9.40;97.50;;;11.29;69.83;102931.63;3081397;46;21182;-71
2023/12/15 08:56:11;;;;;;;34.53;17.60;;;9.40;97.50;;;11.32;69.45;102927.91;3080969;46;21020;-70
2023/12/15 08:58:40;;;;;;;26.73;16.63;;;9.40;97.40;;;11.34;69.47;102941.78;3080697;46;21006;-71
2023/12/15 09:01:08;;;;;;;30.87;16.67;;;9.50;97.40;;;11.36;69.36;102947.78;3081381;46;20452;-71
2023/12/15 09:03:36;;;;;;;34.13;17.37;;;9.50;97.40;;;11.39;69.46;102950.16;3081027;46;20424;-70
2023/12/15 09:06:10;;;;;;;33.90;18.27;;;9.50;97.40;;;11.45;69.50;102957.59;3080681;46;20508;-69
2023/12/15 09:08:41;;;;;;;30.83;17.53;;;9.50;97.40;;;11.51;69.46;102959.72;3080986;46;20474;-69
2023/12/15 09:11:11;;;;;;;32.63;16.10;;;9.60;97.40;;;11.53;69.15;102973.59;3081329;46;20455;-71
2023/12/15 09:13:40;;;;;;;38.00;17.00;;;9.60;97.30;;;11.55;69.13;102974.34;3080431;46;20427;-71
2023/12/15 09:16:13;;;;;;;31.93;18.20;;;9.60;97.30;;;11.54;69.05;102980.56;3080627;46;20442;-71
2023/12/15 09:18:44;;;;;;;28.97;15.40;;;9.70;97.30;;;11.58;68.94;102987.25;3081129;46;20497;-70
2023/12/15 09:21:12;;;;;;;29.07;16.37;;;9.70;97.20;;;11.61;69.03;102992.28;3081232;46;20518;-71
2023/12/15 09:23:41;;;;;;;28.73;15.07;;;9.70;97.20;;;11.65;68.95;102998.16;3082470;46;20456;-71
2023/12/15 09:26:09;;;;;;;23.73;14.77;;;9.80;97.30;;;11.67;69.11;103018.16;3082392;46;20494;-71
2023/12/15 09:28:38;;;;;;;32.37;15.33;;;9.80;97.20;;;11.69;68.84;103010.16;3080757;46;20442;-71
2023/12/15 09:31:07;;;;;;;27.83;14.47;;;9.80;97.20;;;11.70;68.94;103020.56;3079982;46;20468;-70
2023/12/15 09:33:36;;;;;;;37.47;19.83;;;9.80;97.20;;;11.73;68.81;103022.13;3080472;46;20474;-70
2023/12/15 09:36:06;;;;;;;28.53;15.13;;;9.80;97.20;;;11.75;68.61;103026.31;3079795;46;20427;-70
2023/12/15 09:38:34;;;;;;;32.33;16.73;;;9.80;97.10;;;11.76;68.63;103027.16;3079970;46;20459;-71
2023/12/15 09:41:03;;;;;;;31.90;14.27;;;9.90;97.10;;;11.77;68.89;103037.56;3080344;46;20428;-71
2023/12/15 09:43:32;;;;;;;26.90;13.80;;;9.90;97.10;;;11.81;68.82;103039.03;3080017;46;20450;-72
2023/12/15 09:46:02;;;;;;;29.13;14.47;;;9.90;97.10;;;11.83;68.55;103034.44;3079383;46;20447;-71
2023/12/15 09:48:32;;;;;;;25.43;13.97;;;9.90;97.10;;;11.87;68.82;103032.38;3077872;46;20595;-70
2023/12/15 09:51:07;;;;;;;26.03;13.60;;;10.00;96.60;;;11.92;68.66;103030.22;3078381;46;21033;-70
2023/12/15 09:53:38;;;;;;;28.60;13.77;;;10.00;96.60;;;11.96;68.63;103037.75;3078792;46;20472;-69
2023/12/15 09:56:07;;;;;;;25.33;13.60;;;10.10;96.50;;;11.97;68.49;103036.78;3079549;46;20448;-70
2023/12/15 09:58:37;;;;;;;27.80;13.83;;;10.10;96.50;;;12.00;68.31;103052.38;3078580;46;20435;-68
2023/12/15 10:01:06;;;;;;;26.73;13.20;;;10.10;96.70;;;12.05;68.43;103044.91;3080831;46;20494;-69
2023/12/15 10:03:34;;;;;;;29.67;15.00;;;10.10;96.40;;;12.09;68.21;103043.69;3079316;46;20480;-67
2023/12/15 10:06:03;;;;;;;23.17;13.67;;;10.20;96.50;;;12.14;68.25;103038.88;3080683;46;20531;-65
2023/12/15 10:08:44;;;;;;;25.53;13.23;;;10.20;96.50;;;12.19;68.12;103039.28;3079242;46;20440;-71
2023/12/15 10:11:18;;;;;;;26.70;13.00;;;10.20;96.40;;;12.29;68.28;103041.19;3080080;46;20655;-71
2023/12/15 10:13:47;;;;;;;29.13;13.43;;;10.30;96.40;;;12.38;67.99;103037.78;3079677;46;20597;-69
2023/12/15 10:16:15;;;;;;;25.90;15.43;;;10.40;96.40;;;12.78;66.91;103043.97;3080236;46;22469;-67